Bilgaard, Netherlands
Current Conditions -  °F | °C
As of 8:55 PM on Thursday 27 Nov 2014 (Local Time) from EHLW Reporting Station
Light Rain Light Rain  
Wind Chill: 35°   Ceiling: 5000
Heat Index: 41°   Visibility: 2.6mi
Dew Point: 39°   Wind: 10mph
Humidity: 93%   Direction: 110°ESE
Pressure: 29.77"   Gusts: NA
Location:  53.22°N, 5.8°E
Report Text: EHLW 271955Z AUTO 11009KT 4300 -RA FEW012 OVC050 05/04 Q1008 GRN
Loading
Personal Weather Stations






























Interactive Weather Map New forecast layout! Learn more

10-Day Weather Forecast

Advertisements
Track Severe Weather on mobile